Terminal Aerodrome Forecast
Issued by NWS

Home | Current Version | Previous Version | Text Only | Print | Product List | Glossary On
Versions: 1 2 3 4 5 6 7 8 9 10 11 12
000
FTUS45 KGJT 280522
TAFVEL
TAF
KVEL 280522Z 2806/2906 02010G19KT P6SM SKC
     FM281000 34005KT P6SM FEW080 SCT250
     FM281900 20005KT P6SM FEW110 SCT200
     FM282200 23008KT P6SM FEW120 SCT200
     FM290100 26008KT P6SM FEW110 SCT200=

USA.gov is the U.S. government's official web portal to all federal, state and local government web resources and services.